Terminal Aerodrome Forecast
Issued by NWS Cleveland, OH

Home | Current Version | Previous Version | Graphics & Text | Print | Product List | Glossary On
Versions: 1 2 3 4 5 6 7 8 9 10 11 12 13 14 15
432
FTUS41 KCLE 242328
TAFERI
TAF
KERI 242328Z 2500/2524 30014KT P6SM VCSH OVC035
      TEMPO 2500/2504 BKN025
     FM250400 32012KT P6SM OVC015
     FM250800 35011KT P6SM BKN015
     FM251100 02011KT P6SM BKN015
     FM251700 02009KT P6SM BKN035
     FM251900 02008KT P6SM SCT040
     FM252300 04007KT P6SM FEW200=

USA.gov is the U.S. government's official web portal to all federal, state and local government web resources and services.